sensor_id;sensor_type;location;lat;lon;timestamp;temperature;humidity
48936;DHT22;34745;52.276;10.528;2023-04-24T00:02:05;14.10;1.00
48936;DHT22;34745;52.276;10.528;2023-04-24T00:04:34;14.00;1.00
48936;DHT22;34745;52.276;10.528;2023-04-24T00:07:01;14.00;1.00
48936;DHT22;34745;52.276;10.528;2023-04-24T00:09:28;13.90;1.00
48936;DHT22;34745;52.276;10.528;2023-04-24T00:11:55;13.90;1.00
48936;DHT22;34745;52.276;10.528;2023-04-24T00:14:23;13.80;1.00
48936;DHT22;34745;52.276;10.528;2023-04-24T00:16:50;13.80;1.00
48936;DHT22;34745;52.276;10.528;2023-04-24T00:19:19;13.80;1.00
48936;DHT22;34745;52.276;10.528;2023-04-24T00:21:48;13.80;1.00
48936;DHT22;34745;52.276;10.528;2023-04-24T00:24:17;13.70;1.00
48936;DHT22;34745;52.276;10.528;2023-04-24T00:26:44;13.70;1.00
48936;DHT22;34745;52.276;10.528;2023-04-24T00:29:11;13.70;1.00
48936;DHT22;34745;52.276;10.528;2023-04-24T00:31:39;13.80;1.00
48936;DHT22;34745;52.276;10.528;2023-04-24T00:34:06;13.70;1.00
48936;DHT22;34745;52.276;10.528;2023-04-24T00:36:35;13.60;1.00
48936;DHT22;34745;52.276;10.528;2023-04-24T00:39:02;13.50;1.00
48936;DHT22;34745;52.276;10.528;2023-04-24T00:41:30;13.50;1.00
48936;DHT22;34745;52.276;10.528;2023-04-24T00:43:57;13.50;1.00
48936;DHT22;34745;52.276;10.528;2023-04-24T00:46:24;13.50;1.00
48936;DHT22;34745;52.276;10.528;2023-04-24T00:48:51;13.50;1.00
48936;DHT22;34745;52.276;10.528;2023-04-24T00:51:18;13.40;1.00
48936;DHT22;34745;52.276;10.528;2023-04-24T00:53:47;13.40;1.00
48936;DHT22;34745;52.276;10.528;2023-04-24T00:56:13;13.40;1.00
48936;DHT22;34745;52.276;10.528;2023-04-24T00:58:41;13.40;1.00
48936;DHT22;34745;52.276;10.528;2023-04-24T01:01:09;13.40;1.00
48936;DHT22;34745;52.276;10.528;2023-04-24T01:03:36;13.50;1.00
48936;DHT22;34745;52.276;10.528;2023-04-24T01:06:05;13.40;1.00
48936;DHT22;34745;52.276;10.528;2023-04-24T01:08:32;13.40;1.00
48936;DHT22;34745;52.276;10.528;2023-04-24T01:11:03;13.40;1.00
48936;DHT22;34745;52.276;10.528;2023-04-24T01:13:31;13.30;1.00
48936;DHT22;34745;52.276;10.528;2023-04-24T01:15:58;13.30;1.00
48936;DHT22;34745;52.276;10.528;2023-04-24T01:18:26;13.40;1.00
48936;DHT22;34745;52.276;10.528;2023-04-24T01:20:56;13.30;1.00
48936;DHT22;34745;52.276;10.528;2023-04-24T01:23:25;13.40;1.00
48936;DHT22;34745;52.276;10.528;2023-04-24T01:25:52;13.30;1.00
48936;DHT22;34745;52.276;10.528;2023-04-24T01:28:19;13.20;1.00
48936;DHT22;34745;52.276;10.528;2023-04-24T01:30:47;13.20;1.00
48936;DHT22;34745;52.276;10.528;2023-04-24T01:33:14;13.20;1.00
48936;DHT22;34745;52.276;10.528;2023-04-24T01:35:42;13.20;1.00
48936;DHT22;34745;52.276;10.528;2023-04-24T01:38:09;13.20;1.00
48936;DHT22;34745;52.276;10.528;2023-04-24T01:40:37;13.10;1.00
48936;DHT22;34745;52.276;10.528;2023-04-24T01:43:05;13.10;1.00
48936;DHT22;34745;52.276;10.528;2023-04-24T01:45:32;13.10;1.00
48936;DHT22;34745;52.276;10.528;2023-04-24T01:48:00;13.10;1.00
48936;DHT22;34745;52.276;10.528;2023-04-24T01:50:27;13.00;1.00
48936;DHT22;34745;52.276;10.528;2023-04-24T01:52:54;13.00;1.00
48936;DHT22;34745;52.276;10.528;2023-04-24T01:55:22;12.90;1.00
48936;DHT22;34745;52.276;10.528;2023-04-24T01:57:52;12.90;1.00
48936;DHT22;34745;52.276;10.528;2023-04-24T02:00:20;12.80;1.00
48936;DHT22;34745;52.276;10.528;2023-04-24T02:02:47;12.80;1.00
48936;DHT22;34745;52.276;10.528;2023-04-24T02:05:14;12.70;1.00
48936;DHT22;34745;52.276;10.528;2023-04-24T02:07:42;12.70;2.90
48936;DHT22;34745;52.276;10.528;2023-04-24T02:10:10;12.70;1.70
48936;DHT22;34745;52.276;10.528;2023-04-24T02:12:37;12.70;3.40
48936;DHT22;34745;52.276;10.528;2023-04-24T02:15:05;12.60;2.40
48936;DHT22;34745;52.276;10.528;2023-04-24T02:17:33;12.60;5.30
48936;DHT22;34745;52.276;10.528;2023-04-24T02:20:00;12.60;7.30
48936;DHT22;34745;52.276;10.528;2023-04-24T02:22:27;12.60;8.30
48936;DHT22;34745;52.276;10.528;2023-04-24T02:24:54;12.60;10.80
48936;DHT22;34745;52.276;10.528;2023-04-24T02:27:21;12.60;12.60
48936;DHT22;34745;52.276;10.528;2023-04-24T02:29:48;12.50;16.40
48936;DHT22;34745;52.276;10.528;2023-04-24T02:32:16;12.50;19.10
48936;DHT22;34745;52.276;10.528;2023-04-24T02:34:43;12.40;22.80
48936;DHT22;34745;52.276;10.528;2023-04-24T02:37:11;12.30;25.20
48936;DHT22;34745;52.276;10.528;2023-04-24T02:39:38;12.40;30.80
48936;DHT22;34745;52.276;10.528;2023-04-24T02:42:05;12.30;30.90
48936;DHT22;34745;52.276;10.528;2023-04-24T02:44:32;12.30;34.30
48936;DHT22;34745;52.276;10.528;2023-04-24T02:46:59;12.30;33.90
48936;DHT22;34745;52.276;10.528;2023-04-24T02:49:27;12.20;34.40
48936;DHT22;34745;52.276;10.528;2023-04-24T02:51:54;12.20;31.20
48936;DHT22;34745;52.276;10.528;2023-04-24T02:54:21;12.10;34.40
48936;DHT22;34745;52.276;10.528;2023-04-24T02:56:48;12.10;33.00
48936;DHT22;34745;52.276;10.528;2023-04-24T02:59:15;12.10;34.80
48936;DHT22;34745;52.276;10.528;2023-04-24T03:01:42;12.10;29.60
48936;DHT22;34745;52.276;10.528;2023-04-24T03:04:09;12.00;32.20
48936;DHT22;34745;52.276;10.528;2023-04-24T03:06:39;12.10;29.30
48936;DHT22;34745;52.276;10.528;2023-04-24T03:09:06;12.00;32.10
48936;DHT22;34745;52.276;10.528;2023-04-24T03:11:33;12.00;31.20
48936;DHT22;34745;52.276;10.528;2023-04-24T03:14:00;11.90;32.00
48936;DHT22;34745;52.276;10.528;2023-04-24T03:16:27;11.90;30.70
48936;DHT22;34745;52.276;10.528;2023-04-24T03:18:54;11.90;30.40
48936;DHT22;34745;52.276;10.528;2023-04-24T03:21:21;11.90;32.10
48936;DHT22;34745;52.276;10.528;2023-04-24T03:23:50;11.90;34.00
48936;DHT22;34745;52.276;10.528;2023-04-24T03:26:17;11.80;38.00
48936;DHT22;34745;52.276;10.528;2023-04-24T03:28:44;11.80;39.60
48936;DHT22;34745;52.276;10.528;2023-04-24T03:31:11;11.80;38.60
48936;DHT22;34745;52.276;10.528;2023-04-24T03:33:38;11.80;32.90
48936;DHT22;34745;52.276;10.528;2023-04-24T03:36:05;11.80;27.70
48936;DHT22;34745;52.276;10.528;2023-04-24T03:38:32;11.80;13.10
48936;DHT22;34745;52.276;10.528;2023-04-24T03:41:00;11.70;11.20
48936;DHT22;34745;52.276;10.528;2023-04-24T03:43:27;11.70;3.20
48936;DHT22;34745;52.276;10.528;2023-04-24T03:45:54;11.80;3.20
48936;DHT22;34745;52.276;10.528;2023-04-24T03:48:21;11.70;1.00
48936;DHT22;34745;52.276;10.528;2023-04-24T03:50:48;11.70;1.00
48936;DHT22;34745;52.276;10.528;2023-04-24T03:53:15;11.70;1.00
48936;DHT22;34745;52.276;10.528;2023-04-24T03:55:42;11.70;1.60
48936;DHT22;34745;52.276;10.528;2023-04-24T03:58:10;11.60;3.50
48936;DHT22;34745;52.276;10.528;2023-04-24T04:00:37;11.60;4.10
48936;DHT22;34745;52.276;10.528;2023-04-24T04:03:07;11.60;3.70
48936;DHT22;34745;52.276;10.528;2023-04-24T04:05:34;11.50;5.40
48936;DHT22;34745;52.276;10.528;2023-04-24T04:08:01;11.50;3.10
48936;DHT22;34745;52.276;10.528;2023-04-24T04:10:28;11.50;1.60
48936;DHT22;34745;52.276;10.528;2023-04-24T04:12:55;11.60;1.30
48936;DHT22;34745;52.276;10.528;2023-04-24T04:15:24;11.50;1.20
48936;DHT22;34745;52.276;10.528;2023-04-24T04:17:51;11.50;2.50
48936;DHT22;34745;52.276;10.528;2023-04-24T04:20:18;11.50;1.20
48936;DHT22;34745;52.276;10.528;2023-04-24T04:22:45;11.50;2.00
48936;DHT22;34745;52.276;10.528;2023-04-24T04:25:12;11.50;1.00
48936;DHT22;34745;52.276;10.528;2023-04-24T04:27:41;11.60;1.00
48936;DHT22;34745;52.276;10.528;2023-04-24T04:30:08;11.70;34.80
48936;DHT22;34745;52.276;10.528;2023-04-24T04:32:38;11.80;33.90
48936;DHT22;34745;52.276;10.528;2023-04-24T04:35:05;11.80;15.40
48936;DHT22;34745;52.276;10.528;2023-04-24T04:37:33;11.90;16.60
48936;DHT22;34745;52.276;10.528;2023-04-24T04:40:00;11.90;1.00
48936;DHT22;34745;52.276;10.528;2023-04-24T04:42:28;11.90;2.00
48936;DHT22;34745;52.276;10.528;2023-04-24T04:44:55;11.90;1.00
48936;DHT22;34745;52.276;10.528;2023-04-24T04:47:24;12.00;6.80
48936;DHT22;34745;52.276;10.528;2023-04-24T04:49:52;12.10;1.00
48936;DHT22;34745;52.276;10.528;2023-04-24T04:52:19;12.20;1.00
48936;DHT22;34745;52.276;10.528;2023-04-24T04:54:46;12.20;1.00
48936;DHT22;34745;52.276;10.528;2023-04-24T04:57:13;12.30;1.00
48936;DHT22;34745;52.276;10.528;2023-04-24T04:59:40;12.30;1.00
48936;DHT22;34745;52.276;10.528;2023-04-24T05:02:09;12.30;1.00
48936;DHT22;34745;52.276;10.528;2023-04-24T05:04:36;12.30;1.00
48936;DHT22;34745;52.276;10.528;2023-04-24T05:07:05;12.30;1.00
48936;DHT22;34745;52.276;10.528;2023-04-24T05:09:32;12.30;1.00
48936;DHT22;34745;52.276;10.528;2023-04-24T05:11:59;12.30;1.00
48936;DHT22;34745;52.276;10.528;2023-04-24T05:14:26;12.40;1.00
48936;DHT22;34745;52.276;10.528;2023-04-24T05:16:54;12.30;1.00
48936;DHT22;34745;52.276;10.528;2023-04-24T05:19:21;12.30;1.00
48936;DHT22;34745;52.276;10.528;2023-04-24T05:21:48;12.40;1.00
48936;DHT22;34745;52.276;10.528;2023-04-24T05:24:16;12.30;1.00
48936;DHT22;34745;52.276;10.528;2023-04-24T05:26:43;12.30;1.00
48936;DHT22;34745;52.276;10.528;2023-04-24T05:29:10;12.30;1.00
48936;DHT22;34745;52.276;10.528;2023-04-24T05:31:38;12.40;1.00
48936;DHT22;34745;52.276;10.528;2023-04-24T05:34:05;12.40;1.00
48936;DHT22;34745;52.276;10.528;2023-04-24T05:36:33;12.40;1.00
48936;DHT22;34745;52.276;10.528;2023-04-24T05:38:59;12.40;1.00
48936;DHT22;34745;52.276;10.528;2023-04-24T05:41:28;12.50;1.00
48936;DHT22;34745;52.276;10.528;2023-04-24T05:43:55;12.40;1.00
48936;DHT22;34745;52.276;10.528;2023-04-24T05:46:22;12.50;1.00
48936;DHT22;34745;52.276;10.528;2023-04-24T05:48:49;12.30;1.00
48936;DHT22;34745;52.276;10.528;2023-04-24T05:51:16;12.30;1.00
48936;DHT22;34745;52.276;10.528;2023-04-24T05:53:43;12.40;1.00
48936;DHT22;34745;52.276;10.528;2023-04-24T05:56:10;12.50;1.00
48936;DHT22;34745;52.276;10.528;2023-04-24T05:58:38;12.60;1.00
48936;DHT22;34745;52.276;10.528;2023-04-24T06:01:06;12.70;1.00
48936;DHT22;34745;52.276;10.528;2023-04-24T06:03:33;12.70;1.00
48936;DHT22;34745;52.276;10.528;2023-04-24T06:06:00;12.90;1.00
48936;DHT22;34745;52.276;10.528;2023-04-24T06:08:28;12.90;1.00
48936;DHT22;34745;52.276;10.528;2023-04-24T06:10:55;12.80;1.00
48936;DHT22;34745;52.276;10.528;2023-04-24T06:13:22;12.80;1.00
48936;DHT22;34745;52.276;10.528;2023-04-24T06:15:50;12.70;1.00
48936;DHT22;34745;52.276;10.528;2023-04-24T06:18:17;12.70;1.00
48936;DHT22;34745;52.276;10.528;2023-04-24T06:20:45;12.80;1.00
48936;DHT22;34745;52.276;10.528;2023-04-24T06:23:12;13.00;1.00
48936;DHT22;34745;52.276;10.528;2023-04-24T06:25:39;13.10;1.00
48936;DHT22;34745;52.276;10.528;2023-04-24T06:28:06;13.10;1.00
48936;DHT22;34745;52.276;10.528;2023-04-24T06:30:33;13.20;1.00
48936;DHT22;34745;52.276;10.528;2023-04-24T06:33:02;13.20;1.00
48936;DHT22;34745;52.276;10.528;2023-04-24T06:35:46;13.30;1.00
48936;DHT22;34745;52.276;10.528;2023-04-24T06:38:16;13.10;1.00
48936;DHT22;34745;52.276;10.528;2023-04-24T06:40:43;13.00;1.00
48936;DHT22;34745;52.276;10.528;2023-04-24T06:43:10;12.80;1.00
48936;DHT22;34745;52.276;10.528;2023-04-24T06:45:38;12.80;8.40
48936;DHT22;34745;52.276;10.528;2023-04-24T06:48:07;12.80;11.00
48936;DHT22;34745;52.276;10.528;2023-04-24T06:50:34;12.80;8.20
48936;DHT22;34745;52.276;10.528;2023-04-24T06:53:02;12.80;11.90
48936;DHT22;34745;52.276;10.528;2023-04-24T06:55:29;13.00;4.50
48936;DHT22;34745;52.276;10.528;2023-04-24T06:57:56;12.90;1.00
48936;DHT22;34745;52.276;10.528;2023-04-24T07:00:23;12.80;5.40
48936;DHT22;34745;52.276;10.528;2023-04-24T07:02:51;12.80;4.60
48936;DHT22;34745;52.276;10.528;2023-04-24T07:05:19;12.80;9.50
48936;DHT22;34745;52.276;10.528;2023-04-24T07:07:47;12.80;3.20
48936;DHT22;34745;52.276;10.528;2023-04-24T07:10:14;12.80;5.30
48936;DHT22;34745;52.276;10.528;2023-04-24T07:12:41;12.90;3.70
48936;DHT22;34745;52.276;10.528;2023-04-24T07:15:09;12.90;1.00
48936;DHT22;34745;52.276;10.528;2023-04-24T07:17:37;13.10;1.00
48936;DHT22;34745;52.276;10.528;2023-04-24T07:20:06;13.20;1.00
48936;DHT22;34745;52.276;10.528;2023-04-24T07:22:37;13.40;1.00
48936;DHT22;34745;52.276;10.528;2023-04-24T07:25:05;13.70;1.00
48936;DHT22;34745;52.276;10.528;2023-04-24T07:27:33;13.70;1.00
48936;DHT22;34745;52.276;10.528;2023-04-24T07:30:00;13.80;1.00
48936;DHT22;34745;52.276;10.528;2023-04-24T07:32:27;13.80;1.00
48936;DHT22;34745;52.276;10.528;2023-04-24T07:34:55;13.10;1.00
48936;DHT22;34745;52.276;10.528;2023-04-24T07:37:22;12.70;1.00
48936;DHT22;34745;52.276;10.528;2023-04-24T07:39:51;12.70;1.00
48936;DHT22;34745;52.276;10.528;2023-04-24T07:42:18;12.50;1.00
48936;DHT22;34745;52.276;10.528;2023-04-24T07:44:45;12.20;1.00
48936;DHT22;34745;52.276;10.528;2023-04-24T07:47:14;11.90;1.00
48936;DHT22;34745;52.276;10.528;2023-04-24T07:49:42;11.60;31.80
48936;DHT22;34745;52.276;10.528;2023-04-24T07:52:10;11.20;70.60
48936;DHT22;34745;52.276;10.528;2023-04-24T07:54:37;11.20;99.90
48936;DHT22;34745;52.276;10.528;2023-04-24T07:57:06;11.20;99.90
48936;DHT22;34745;52.276;10.528;2023-04-24T07:59:34;11.40;99.90
48936;DHT22;34745;52.276;10.528;2023-04-24T08:02:01;11.20;99.90
48936;DHT22;34745;52.276;10.528;2023-04-24T08:04:28;11.30;99.90
48936;DHT22;34745;52.276;10.528;2023-04-24T08:06:55;11.50;99.90
48936;DHT22;34745;52.276;10.528;2023-04-24T08:09:22;11.50;99.90
48936;DHT22;34745;52.276;10.528;2023-04-24T08:11:52;11.70;99.90
48936;DHT22;34745;52.276;10.528;2023-04-24T08:14:21;11.90;75.40
48936;DHT22;34745;52.276;10.528;2023-04-24T08:16:48;12.00;81.30
48936;DHT22;34745;52.276;10.528;2023-04-24T08:19:15;12.10;56.90
48936;DHT22;34745;52.276;10.528;2023-04-24T08:21:42;12.20;34.50
48936;DHT22;34745;52.276;10.528;2023-04-24T08:24:09;12.30;21.70
48936;DHT22;34745;52.276;10.528;2023-04-24T08:26:36;12.40;28.10
48936;DHT22;34745;52.276;10.528;2023-04-24T08:29:03;12.50;28.00
48936;DHT22;34745;52.276;10.528;2023-04-24T08:31:32;12.80;31.60
48936;DHT22;34745;52.276;10.528;2023-04-24T08:33:59;12.90;5.90
48936;DHT22;34745;52.276;10.528;2023-04-24T08:36:27;12.80;3.40
48936;DHT22;34745;52.276;10.528;2023-04-24T08:39:09;12.90;12.60
48936;DHT22;34745;52.276;10.528;2023-04-24T08:41:37;12.70;14.40
48936;DHT22;34745;52.276;10.528;2023-04-24T08:44:04;12.80;1.00
48936;DHT22;34745;52.276;10.528;2023-04-24T08:46:36;13.00;1.00
48936;DHT22;34745;52.276;10.528;2023-04-24T08:49:03;13.20;1.00
48936;DHT22;34745;52.276;10.528;2023-04-24T08:51:31;13.30;1.00
48936;DHT22;34745;52.276;10.528;2023-04-24T08:53:58;13.20;1.00
48936;DHT22;34745;52.276;10.528;2023-04-24T08:56:26;13.00;1.00
48936;DHT22;34745;52.276;10.528;2023-04-24T08:58:53;13.00;1.00
48936;DHT22;34745;52.276;10.528;2023-04-24T09:01:22;12.90;1.00
48936;DHT22;34745;52.276;10.528;2023-04-24T09:03:53;12.90;1.00
48936;DHT22;34745;52.276;10.528;2023-04-24T09:06:22;13.00;1.00
48936;DHT22;34745;52.276;10.528;2023-04-24T09:08:52;13.10;1.00
48936;DHT22;34745;52.276;10.528;2023-04-24T09:11:20;13.10;1.00
48936;DHT22;34745;52.276;10.528;2023-04-24T09:13:48;13.10;1.00
48936;DHT22;34745;52.276;10.528;2023-04-24T09:16:15;13.40;1.00
48936;DHT22;34745;52.276;10.528;2023-04-24T09:18:42;13.60;1.00
48936;DHT22;34745;52.276;10.528;2023-04-24T09:21:11;13.80;1.00
48936;DHT22;34745;52.276;10.528;2023-04-24T09:23:38;13.70;1.00
48936;DHT22;34745;52.276;10.528;2023-04-24T09:26:06;13.70;1.00
48936;DHT22;34745;52.276;10.528;2023-04-24T09:28:35;13.50;1.00
48936;DHT22;34745;52.276;10.528;2023-04-24T09:31:04;13.40;1.00
48936;DHT22;34745;52.276;10.528;2023-04-24T09:33:31;13.50;1.00
48936;DHT22;34745;52.276;10.528;2023-04-24T09:35:58;13.80;1.00
48936;DHT22;34745;52.276;10.528;2023-04-24T09:38:37;14.20;1.00
48936;DHT22;34745;52.276;10.528;2023-04-24T09:41:06;14.10;1.00
48936;DHT22;34745;52.276;10.528;2023-04-24T09:43:34;14.10;1.00
48936;DHT22;34745;52.276;10.528;2023-04-24T09:46:05;14.00;1.00
48936;DHT22;34745;52.276;10.528;2023-04-24T09:48:34;14.00;1.00
48936;DHT22;34745;52.276;10.528;2023-04-24T09:51:02;13.90;1.00
48936;DHT22;34745;52.276;10.528;2023-04-24T09:53:30;13.90;1.00
48936;DHT22;34745;52.276;10.528;2023-04-24T09:56:07;13.90;1.00
48936;DHT22;34745;52.276;10.528;2023-04-24T09:58:35;14.10;1.00
48936;DHT22;34745;52.276;10.528;2023-04-24T10:01:03;14.00;1.00
48936;DHT22;34745;52.276;10.528;2023-04-24T10:03:30;13.90;1.00
48936;DHT22;34745;52.276;10.528;2023-04-24T10:05:58;14.00;1.00
48936;DHT22;34745;52.276;10.528;2023-04-24T10:08:26;14.10;1.00
48936;DHT22;34745;52.276;10.528;2023-04-24T10:10:59;14.00;1.00
48936;DHT22;34745;52.276;10.528;2023-04-24T10:13:28;14.00;1.00
48936;DHT22;34745;52.276;10.528;2023-04-24T10:15:56;14.30;1.00
48936;DHT22;34745;52.276;10.528;2023-04-24T10:18:25;14.60;1.00
48936;DHT22;34745;52.276;10.528;2023-04-24T10:20:53;15.00;1.00
48936;DHT22;34745;52.276;10.528;2023-04-24T10:23:22;14.80;1.00
48936;DHT22;34745;52.276;10.528;2023-04-24T10:25:50;14.30;1.00
48936;DHT22;34745;52.276;10.528;2023-04-24T10:28:19;14.00;1.00
48936;DHT22;34745;52.276;10.528;2023-04-24T10:30:49;14.00;1.00
48936;DHT22;34745;52.276;10.528;2023-04-24T10:33:17;14.00;1.00
48936;DHT22;34745;52.276;10.528;2023-04-24T10:35:47;14.00;1.00
48936;DHT22;34745;52.276;10.528;2023-04-24T10:38:21;14.00;1.00
48936;DHT22;34745;52.276;10.528;2023-04-24T10:40:50;14.00;1.00
48936;DHT22;34745;52.276;10.528;2023-04-24T10:43:18;13.90;1.00
48936;DHT22;34745;52.276;10.528;2023-04-24T10:46:02;13.80;1.00
48936;DHT22;34745;52.276;10.528;2023-04-24T10:48:31;13.90;1.00
48936;DHT22;34745;52.276;10.528;2023-04-24T10:50:58;14.00;1.00
48936;DHT22;34745;52.276;10.528;2023-04-24T10:53:28;14.10;1.00
48936;DHT22;34745;52.276;10.528;2023-04-24T10:55:58;14.00;1.00
48936;DHT22;34745;52.276;10.528;2023-04-24T10:58:36;13.90;1.00
48936;DHT22;34745;52.276;10.528;2023-04-24T11:01:06;13.80;1.00
48936;DHT22;34745;52.276;10.528;2023-04-24T11:03:34;13.80;1.00
48936;DHT22;34745;52.276;10.528;2023-04-24T11:06:04;14.00;1.00
48936;DHT22;34745;52.276;10.528;2023-04-24T11:08:37;14.20;1.00
48936;DHT22;34745;52.276;10.528;2023-04-24T11:11:10;14.40;1.00
48936;DHT22;34745;52.276;10.528;2023-04-24T11:14:06;14.70;1.00
48936;DHT22;34745;52.276;10.528;2023-04-24T11:16:38;14.90;1.00
48936;DHT22;34745;52.276;10.528;2023-04-24T11:19:07;15.10;1.00
48936;DHT22;34745;52.276;10.528;2023-04-24T11:21:42;15.00;1.00
48936;DHT22;34745;52.276;10.528;2023-04-24T11:24:33;14.80;1.00
48936;DHT22;34745;52.276;10.528;2023-04-24T11:27:06;14.50;1.00
48936;DHT22;34745;52.276;10.528;2023-04-24T11:29:46;14.40;1.00
48936;DHT22;34745;52.276;10.528;2023-04-24T11:32:35;14.20;1.00
48936;DHT22;34745;52.276;10.528;2023-04-24T11:35:05;13.90;1.00
48936;DHT22;34745;52.276;10.528;2023-04-24T11:37:37;14.00;1.00
48936;DHT22;34745;52.276;10.528;2023-04-24T11:40:05;14.30;1.00
48936;DHT22;34745;52.276;10.528;2023-04-24T11:42:37;14.10;1.00
48936;DHT22;34745;52.276;10.528;2023-04-24T11:45:08;14.00;1.00
48936;DHT22;34745;52.276;10.528;2023-04-24T11:47:37;13.90;1.00
48936;DHT22;34745;52.276;10.528;2023-04-24T11:50:06;13.90;1.00
48936;DHT22;34745;52.276;10.528;2023-04-24T11:52:37;13.80;1.00
48936;DHT22;34745;52.276;10.528;2023-04-24T11:55:06;13.90;1.00
48936;DHT22;34745;52.276;10.528;2023-04-24T11:57:33;14.00;1.00
48936;DHT22;34745;52.276;10.528;2023-04-24T12:00:01;13.90;1.00
48936;DHT22;34745;52.276;10.528;2023-04-24T12:02:31;13.80;1.00
48936;DHT22;34745;52.276;10.528;2023-04-24T12:04:59;13.70;1.00
48936;DHT22;34745;52.276;10.528;2023-04-24T12:07:27;13.90;1.00
48936;DHT22;34745;52.276;10.528;2023-04-24T12:09:57;14.00;1.00
48936;DHT22;34745;52.276;10.528;2023-04-24T12:12:27;14.30;1.00
48936;DHT22;34745;52.276;10.528;2023-04-24T12:14:56;14.30;1.00
48936;DHT22;34745;52.276;10.528;2023-04-24T12:17:25;14.40;1.00
48936;DHT22;34745;52.276;10.528;2023-04-24T12:19:59;14.70;1.00
48936;DHT22;34745;52.276;10.528;2023-04-24T12:22:27;14.80;1.00
48936;DHT22;34745;52.276;10.528;2023-04-24T12:24:59;14.50;1.00
48936;DHT22;34745;52.276;10.528;2023-04-24T12:27:30;14.30;1.00
48936;DHT22;34745;52.276;10.528;2023-04-24T12:29:58;14.00;1.00
48936;DHT22;34745;52.276;10.528;2023-04-24T12:32:26;14.10;1.00
48936;DHT22;34745;52.276;10.528;2023-04-24T12:34:54;13.90;1.00
48936;DHT22;34745;52.276;10.528;2023-04-24T12:37:25;13.90;1.00
48936;DHT22;34745;52.276;10.528;2023-04-24T12:39:59;13.90;1.00
48936;DHT22;34745;52.276;10.528;2023-04-24T12:42:28;13.70;1.00
48936;DHT22;34745;52.276;10.528;2023-04-24T12:44:59;13.50;1.00
48936;DHT22;34745;52.276;10.528;2023-04-24T12:47:27;13.40;1.00
48936;DHT22;34745;52.276;10.528;2023-04-24T12:49:55;13.50;1.00
48936;DHT22;34745;52.276;10.528;2023-04-24T12:52:23;13.80;1.00
48936;DHT22;34745;52.276;10.528;2023-04-24T12:54:52;14.10;1.00
48936;DHT22;34745;52.276;10.528;2023-04-24T12:57:19;14.20;1.00
48936;DHT22;34745;52.276;10.528;2023-04-24T12:59:46;14.00;1.00
48936;DHT22;34745;52.276;10.528;2023-04-24T13:02:13;13.80;1.00
48936;DHT22;34745;52.276;10.528;2023-04-24T13:04:44;13.50;1.00
48936;DHT22;34745;52.276;10.528;2023-04-24T13:07:12;13.50;1.00
48936;DHT22;34745;52.276;10.528;2023-04-24T13:09:41;13.10;1.00
48936;DHT22;34745;52.276;10.528;2023-04-24T13:12:08;12.80;1.00
48936;DHT22;34745;52.276;10.528;2023-04-24T13:14:35;12.50;1.00
48936;DHT22;34745;52.276;10.528;2023-04-24T13:17:03;12.20;1.00
48936;DHT22;34745;52.276;10.528;2023-04-24T13:19:35;12.30;1.00
48936;DHT22;34745;52.276;10.528;2023-04-24T13:22:02;12.60;1.00
48936;DHT22;34745;52.276;10.528;2023-04-24T13:24:29;12.90;1.00
48936;DHT22;34745;52.276;10.528;2023-04-24T13:26:59;12.90;1.00
48936;DHT22;34745;52.276;10.528;2023-04-24T13:29:27;12.80;1.00
48936;DHT22;34745;52.276;10.528;2023-04-24T13:31:54;12.60;1.00
48936;DHT22;34745;52.276;10.528;2023-04-24T13:34:22;12.50;1.00
48936;DHT22;34745;52.276;10.528;2023-04-24T13:36:49;12.40;1.00
48936;DHT22;34745;52.276;10.528;2023-04-24T13:39:19;12.40;1.00
48936;DHT22;34745;52.276;10.528;2023-04-24T13:41:46;12.30;1.00
48936;DHT22;34745;52.276;10.528;2023-04-24T13:44:18;12.30;1.00
48936;DHT22;34745;52.276;10.528;2023-04-24T13:46:50;12.20;1.00
48936;DHT22;34745;52.276;10.528;2023-04-24T13:49:18;12.30;1.00
48936;DHT22;34745;52.276;10.528;2023-04-24T13:51:45;12.40;1.00
48936;DHT22;34745;52.276;10.528;2023-04-24T13:54:12;12.60;1.00
48936;DHT22;34745;52.276;10.528;2023-04-24T13:56:40;12.80;1.00
48936;DHT22;34745;52.276;10.528;2023-04-24T13:59:07;12.80;1.00
48936;DHT22;34745;52.276;10.528;2023-04-24T14:01:36;12.70;1.00
48936;DHT22;34745;52.276;10.528;2023-04-24T14:04:03;12.60;1.00
48936;DHT22;34745;52.276;10.528;2023-04-24T14:06:31;12.40;1.00
48936;DHT22;34745;52.276;10.528;2023-04-24T14:08:57;12.30;1.00
48936;DHT22;34745;52.276;10.528;2023-04-24T14:11:26;12.20;1.00
48936;DHT22;34745;52.276;10.528;2023-04-24T14:13:54;12.20;1.00
48936;DHT22;34745;52.276;10.528;2023-04-24T14:16:23;11.90;1.00
48936;DHT22;34745;52.276;10.528;2023-04-24T14:18:51;11.70;1.00
48936;DHT22;34745;52.276;10.528;2023-04-24T14:21:18;11.50;1.00
48936;DHT22;34745;52.276;10.528;2023-04-24T14:23:45;11.40;1.00
48936;DHT22;34745;52.276;10.528;2023-04-24T14:26:12;11.40;1.00
48936;DHT22;34745;52.276;10.528;2023-04-24T14:28:39;11.30;1.00
48936;DHT22;34745;52.276;10.528;2023-04-24T14:31:06;11.40;1.00
48936;DHT22;34745;52.276;10.528;2023-04-24T14:33:34;11.30;1.00
48936;DHT22;34745;52.276;10.528;2023-04-24T14:36:03;11.30;1.00
48936;DHT22;34745;52.276;10.528;2023-04-24T14:38:32;11.20;1.00
48936;DHT22;34745;52.276;10.528;2023-04-24T14:40:59;11.10;1.00
48936;DHT22;34745;52.276;10.528;2023-04-24T14:43:29;11.10;1.00
48936;DHT22;34745;52.276;10.528;2023-04-24T14:45:57;11.00;1.00
48936;DHT22;34745;52.276;10.528;2023-04-24T14:48:23;10.80;1.00
48936;DHT22;34745;52.276;10.528;2023-04-24T14:50:50;10.60;1.00
48936;DHT22;34745;52.276;10.528;2023-04-24T14:53:19;10.50;1.00
48936;DHT22;34745;52.276;10.528;2023-04-24T14:55:46;10.40;1.00
48936;DHT22;34745;52.276;10.528;2023-04-24T14:58:13;10.30;1.00
48936;DHT22;34745;52.276;10.528;2023-04-24T15:00:40;10.20;1.00
48936;DHT22;34745;52.276;10.528;2023-04-24T15:03:07;10.20;1.00
48936;DHT22;34745;52.276;10.528;2023-04-24T15:05:35;10.20;1.00
48936;DHT22;34745;52.276;10.528;2023-04-24T15:08:03;10.30;1.00
48936;DHT22;34745;52.276;10.528;2023-04-24T15:10:32;10.20;1.00
48936;DHT22;34745;52.276;10.528;2023-04-24T15:13:00;10.20;1.00
48936;DHT22;34745;52.276;10.528;2023-04-24T15:15:28;10.30;1.00
48936;DHT22;34745;52.276;10.528;2023-04-24T15:17:55;10.20;1.00
48936;DHT22;34745;52.276;10.528;2023-04-24T15:20:22;10.20;1.00
48936;DHT22;34745;52.276;10.528;2023-04-24T15:22:49;10.20;1.00
48936;DHT22;34745;52.276;10.528;2023-04-24T15:25:16;10.20;1.00
48936;DHT22;34745;52.276;10.528;2023-04-24T15:27:45;10.20;1.00
48936;DHT22;34745;52.276;10.528;2023-04-24T15:30:13;10.10;1.00
48936;DHT22;34745;52.276;10.528;2023-04-24T15:32:40;10.10;3.60
48936;DHT22;34745;52.276;10.528;2023-04-24T15:35:08;10.10;18.90